createdAt,value
2022-09-24T00:03:10.360Z,16.20
2022-09-24T00:05:39.373Z,16.20
2022-09-24T00:08:06.654Z,16.20
2022-09-24T00:10:38.954Z,16.10
2022-09-24T00:13:07.083Z,16.20
2022-09-24T00:15:38.136Z,16.20
2022-09-24T00:18:07.470Z,16.20
2022-09-24T00:25:13.243Z,16.10
2022-09-24T00:27:40.416Z,16.10
2022-09-24T00:30:08.613Z,16.10
2022-09-24T00:32:35.497Z,16.10
2022-09-24T00:35:02.708Z,16.10
2022-09-24T00:37:29.659Z,16.20
2022-09-24T00:39:57.723Z,16.20
2022-09-24T00:46:40.288Z,16.30
2022-09-24T00:49:13.677Z,16.40
2022-09-24T00:51:42.746Z,16.30
2022-09-24T00:54:14.946Z,16.30
2022-09-24T00:56:43.794Z,16.20
2022-09-24T00:59:16.765Z,16.20
2022-09-24T01:01:46.203Z,16.40
2022-09-24T01:08:34.261Z,16.60
2022-09-24T01:11:16.726Z,16.60
2022-09-24T01:14:09.484Z,16.30
2022-09-24T01:16:43.773Z,16.10
2022-09-24T01:19:29.865Z,16.10
2022-09-24T01:22:00.997Z,16.00
2022-09-24T01:27:23.094Z,15.90
2022-09-24T01:30:06.657Z,16.30
2022-09-24T01:32:37.917Z,16.30
2022-09-24T01:35:16.000Z,16.30
2022-09-24T01:37:48.955Z,16.20
2022-09-24T01:40:17.905Z,16.20
2022-09-24T01:45:45.758Z,16.10
2022-09-24T01:48:12.967Z,16.10
2022-09-24T01:50:46.815Z,15.90
2022-09-24T01:53:20.286Z,15.90
2022-09-24T01:55:51.690Z,15.90
2022-09-24T01:58:27.375Z,15.80
2022-09-24T02:01:00.413Z,15.90
2022-09-24T02:07:50.464Z,15.70
2022-09-24T02:10:19.957Z,15.80
2022-09-24T02:12:52.117Z,15.80
2022-09-24T02:15:22.351Z,15.80
2022-09-24T02:17:55.614Z,15.80
2022-09-24T02:20:25.997Z,15.80
2022-09-24T02:22:57.748Z,15.90
2022-09-24T02:29:42.125Z,15.80
2022-09-24T02:32:12.805Z,15.90
2022-09-24T02:34:44.335Z,15.80
2022-09-24T02:37:13.607Z,15.80
2022-09-24T02:39:41.616Z,15.80
2022-09-24T02:42:11.598Z,15.80
2022-09-24T02:44:38.856Z,15.80
2022-09-24T02:51:39.904Z,15.60
2022-09-24T02:54:07.935Z,15.70
2022-09-24T02:56:36.017Z,15.80
2022-09-24T02:59:04.669Z,15.70
2022-09-24T03:01:33.153Z,15.60
2022-09-24T03:04:00.878Z,15.60
2022-09-24T03:06:28.255Z,15.90
2022-09-24T03:13:39.086Z,15.90
2022-09-24T03:16:07.416Z,15.80
2022-09-24T03:18:35.001Z,15.50
2022-09-24T03:21:05.210Z,15.30
2022-09-24T03:23:32.507Z,15.20
2022-09-24T03:25:59.796Z,15.10
2022-09-24T03:28:27.179Z,15.10
2022-09-24T03:36:02.107Z,15.20
2022-09-24T03:38:30.166Z,15.30
2022-09-24T03:40:57.583Z,15.30
2022-09-24T03:43:24.967Z,15.20
2022-09-24T03:45:52.429Z,15.20
2022-09-24T03:48:20.911Z,15.20
2022-09-24T03:50:48.549Z,15.20
2022-09-24T03:58:18.454Z,15.20
2022-09-24T04:00:46.066Z,15.10
2022-09-24T04:03:13.296Z,15.20
2022-09-24T04:05:40.267Z,15.10
2022-09-24T04:08:07.397Z,15.00
2022-09-24T04:10:34.821Z,15.10
2022-09-24T04:13:02.187Z,15.40
2022-09-24T04:20:30.585Z,15.50
2022-09-24T04:22:58.996Z,15.40
2022-09-24T04:25:30.065Z,15.30
2022-09-24T04:27:59.346Z,15.30
2022-09-24T04:30:27.956Z,15.20
2022-09-24T04:32:55.195Z,15.30
2022-09-24T04:35:23.626Z,15.30
2022-09-24T04:42:28.758Z,15.10
2022-09-24T04:44:56.347Z,15.00
2022-09-24T04:47:25.858Z,15.00
2022-09-24T04:49:53.226Z,15.00
2022-09-24T04:52:26.234Z,15.00
2022-09-24T04:54:53.957Z,15.00
2022-09-24T04:57:22.477Z,15.00
2022-09-24T05:04:09.644Z,15.10
2022-09-24T05:06:37.108Z,15.20
2022-09-24T05:09:08.967Z,15.30
2022-09-24T05:11:39.027Z,15.60
2022-09-24T05:14:06.485Z,15.60
2022-09-24T05:16:34.051Z,15.30
2022-09-24T05:19:01.420Z,15.20
2022-09-24T05:26:25.145Z,14.90
2022-09-24T05:28:53.607Z,15.10
2022-09-24T05:31:21.242Z,15.40
2022-09-24T05:33:48.835Z,15.30
2022-09-24T05:36:15.762Z,15.20
2022-09-24T05:44:21.347Z,15.20
2022-09-24T05:46:49.396Z,15.10
2022-09-24T05:49:17.147Z,14.80
2022-09-24T05:51:44.627Z,14.70
2022-09-24T05:54:11.717Z,14.70
2022-09-24T05:56:39.047Z,14.70
2022-09-24T05:59:06.803Z,14.60
2022-09-24T06:06:30.731Z,14.50
2022-09-24T06:09:02.579Z,14.60
2022-09-24T06:11:39.003Z,14.70
2022-09-24T06:14:08.358Z,14.70
2022-09-24T06:16:35.906Z,14.60
2022-09-24T06:19:03.145Z,14.70
2022-09-24T06:21:31.584Z,14.70
2022-09-24T06:26:46.711Z,14.60
2022-09-24T06:29:14.565Z,14.70
2022-09-24T06:31:41.917Z,14.80
2022-09-24T06:34:09.133Z,14.70
2022-09-24T06:36:37.098Z,14.80
2022-09-24T06:39:04.763Z,14.80
2022-09-24T06:41:32.028Z,14.90
2022-09-24T06:46:40.950Z,14.90
2022-09-24T06:49:08.219Z,14.90
2022-09-24T06:51:35.649Z,15.00
2022-09-24T06:54:03.077Z,15.20
2022-09-24T06:56:30.806Z,15.20
2022-09-24T06:58:58.691Z,15.00
2022-09-24T07:01:26.320Z,15.10
2022-09-24T07:08:13.197Z,15.30
2022-09-24T07:10:43.679Z,15.10
2022-09-24T07:13:14.595Z,15.30
2022-09-24T07:15:42.622Z,15.40
2022-09-24T07:18:10.289Z,15.70
2022-09-24T07:20:37.477Z,15.70
2022-09-24T07:23:06.686Z,15.80
2022-09-24T07:29:44.227Z,15.90
2022-09-24T07:32:11.871Z,16.00
2022-09-24T07:34:41.078Z,15.90
2022-09-24T07:37:08.725Z,15.80
2022-09-24T07:39:35.883Z,16.00
2022-09-24T07:42:02.886Z,16.00
2022-09-24T07:44:30.170Z,16.30
2022-09-24T07:52:08.393Z,16.20
2022-09-24T07:54:35.607Z,16.50
2022-09-24T08:01:01.734Z,16.60
2022-09-24T08:03:40.880Z,16.50
2022-09-24T08:06:18.816Z,16.50
2022-09-24T08:08:57.443Z,16.50
2022-09-24T08:11:41.068Z,16.70
2022-09-24T08:17:11.492Z,17.10
2022-09-24T08:19:42.591Z,17.10
2022-09-24T08:22:10.098Z,17.30
2022-09-24T08:24:37.752Z,17.40
2022-09-24T08:27:04.880Z,17.40
2022-09-24T08:29:32.257Z,17.20
2022-09-24T08:32:05.553Z,17.30
2022-09-24T08:38:56.302Z,17.40
2022-09-24T08:41:50.352Z,17.50
2022-09-24T08:44:38.274Z,17.30
2022-09-24T08:47:24.459Z,17.30
2022-09-24T08:50:09.832Z,17.40
2022-09-24T08:53:06.234Z,17.50
2022-09-24T09:00:29.892Z,18.10
2022-09-24T09:03:06.797Z,18.00
2022-09-24T09:05:49.843Z,18.00
2022-09-24T09:11:34.649Z,18.30
2022-09-24T09:14:14.408Z,18.50
2022-09-24T09:16:52.776Z,18.50
2022-09-24T09:24:49.342Z,18.50
2022-09-24T09:30:58.570Z,18.80
2022-09-24T09:34:50.778Z,19.00
2022-09-24T09:40:36.120Z,19.80
2022-09-24T09:43:10.586Z,19.80
2022-09-24T09:50:06.150Z,20.30
2022-09-24T09:52:39.449Z,20.60
2022-09-24T09:55:07.935Z,20.60
2022-09-24T09:57:36.654Z,20.20
2022-09-24T10:00:05.971Z,20.70
2022-09-24T10:02:38.179Z,20.80
2022-09-24T10:05:26.975Z,21.20
2022-09-24T10:12:47.099Z,21.70
2022-09-24T10:15:19.408Z,22.10
2022-09-24T10:17:49.497Z,21.90
2022-09-24T10:20:31.945Z,22.00
2022-09-24T10:23:18.561Z,22.30
2022-09-24T10:25:56.412Z,22.40
2022-09-24T10:28:43.962Z,22.70
2022-09-24T10:31:17.455Z,22.80
2022-09-24T10:38:38.294Z,23.30
2022-09-24T10:41:20.508Z,23.50
2022-09-24T10:43:51.921Z,23.70
2022-09-24T10:46:43.916Z,23.50
2022-09-24T10:49:17.694Z,23.50
2022-09-24T10:51:51.959Z,23.70
2022-09-24T10:57:17.580Z,23.70
2022-09-24T11:00:01.556Z,24.10
2022-09-24T11:05:52.900Z,24.50
2022-09-24T11:08:34.387Z,24.10
2022-09-24T11:11:16.288Z,24.00
2022-09-24T11:13:51.677Z,24.10
2022-09-24T11:21:58.637Z,24.30
2022-09-24T11:25:12.354Z,24.10
2022-09-24T11:27:53.781Z,24.00
2022-09-24T11:30:24.930Z,24.30
2022-09-24T11:33:03.440Z,24.20
2022-09-24T11:35:55.905Z,24.30
2022-09-24T11:38:36.662Z,24.40
2022-09-24T11:45:34.847Z,24.50
2022-09-24T11:48:21.652Z,24.10
2022-09-24T11:51:00.207Z,24.00
2022-09-24T11:53:35.229Z,24.10
2022-09-24T11:56:13.087Z,24.20
2022-09-24T11:58:46.171Z,24.30
2022-09-24T12:06:55.109Z,24.30
2022-09-24T12:09:30.735Z,24.00
2022-09-24T12:12:05.138Z,23.80
2022-09-24T12:14:43.867Z,23.80
2022-09-24T12:17:18.627Z,23.60
2022-09-24T12:19:53.669Z,23.60
2022-09-24T12:22:23.563Z,23.60
2022-09-24T12:30:18.119Z,23.60
2022-09-24T12:32:58.687Z,23.30
2022-09-24T12:35:43.737Z,23.30
2022-09-24T12:38:15.647Z,23.30
2022-09-24T12:41:17.059Z,23.40
2022-09-24T12:43:49.777Z,23.10
2022-09-24T12:46:21.893Z,23.10
2022-09-24T12:54:06.078Z,23.10
2022-09-24T12:56:34.414Z,23.10
2022-09-24T12:59:05.161Z,23.20
2022-09-24T13:01:36.330Z,23.30
2022-09-24T13:04:26.581Z,23.30
2022-09-24T13:06:53.812Z,23.30
2022-09-24T13:09:35.011Z,23.20
2022-09-24T13:17:08.517Z,23.30
2022-09-24T13:19:40.314Z,23.30
2022-09-24T13:22:22.287Z,23.40
2022-09-24T13:24:53.254Z,23.50
2022-09-24T13:27:37.596Z,23.50
2022-09-24T13:30:16.880Z,23.30
2022-09-24T13:40:56.841Z,23.00
2022-09-24T13:43:39.511Z,22.70
2022-09-24T13:46:13.922Z,22.60
2022-09-24T13:48:45.897Z,22.70
2022-09-24T13:51:16.277Z,22.50
2022-09-24T13:53:49.298Z,22.50
2022-09-24T14:04:18.968Z,22.40
2022-09-24T14:06:49.957Z,22.20
2022-09-24T14:09:31.369Z,22.10
2022-09-24T14:12:01.048Z,22.10
2022-09-24T14:14:31.127Z,22.30
2022-09-24T14:17:11.582Z,22.20
2022-09-24T14:19:39.953Z,22.20
2022-09-24T14:29:13.410Z,22.10
2022-09-24T14:31:47.995Z,22.10
2022-09-24T14:34:34.249Z,21.80
2022-09-24T14:37:10.296Z,21.90
2022-09-24T14:39:42.410Z,21.90
2022-09-24T14:42:13.334Z,21.90
2022-09-24T14:47:37.589Z,21.90
2022-09-24T14:50:21.268Z,21.90
2022-09-24T14:52:56.950Z,21.80
2022-09-24T14:55:38.545Z,21.80
2022-09-24T14:58:06.582Z,21.70
2022-09-24T15:00:46.757Z,21.50
2022-09-24T15:03:18.310Z,21.50
2022-09-24T15:10:25.030Z,21.70
2022-09-24T15:12:53.832Z,21.70
2022-09-24T15:15:30.108Z,21.70
2022-09-24T15:18:00.687Z,21.40
2022-09-24T15:20:28.540Z,21.40
2022-09-24T15:22:58.929Z,21.30
2022-09-24T15:26:09.557Z,21.20
2022-09-24T15:31:32.377Z,21.10
2022-09-24T15:34:27.332Z,21.10
2022-09-24T15:36:59.597Z,21.00
2022-09-24T15:39:27.331Z,21.10
2022-09-24T15:41:56.969Z,21.00
2022-09-24T15:44:33.611Z,20.90
2022-09-24T15:47:23.477Z,20.80
2022-09-24T15:49:59.376Z,20.60
2022-09-24T15:56:30.923Z,20.60
2022-09-24T15:58:59.339Z,20.60
2022-09-24T16:01:30.063Z,20.60
2022-09-24T16:03:57.978Z,20.40
2022-09-24T16:06:25.799Z,20.50
2022-09-24T16:08:56.088Z,20.50
2022-09-24T16:11:24.626Z,20.50
2022-09-24T16:16:43.797Z,20.50
2022-09-24T16:19:14.729Z,20.60
2022-09-24T16:21:43.263Z,20.50
2022-09-24T16:24:10.486Z,20.60
2022-09-24T16:26:38.042Z,20.60
2022-09-24T16:29:16.562Z,20.40
2022-09-24T16:31:45.409Z,20.40
2022-09-24T16:38:51.686Z,20.40
2022-09-24T16:41:19.037Z,20.40
2022-09-24T16:43:46.500Z,20.40
2022-09-24T16:46:19.516Z,20.40
2022-09-24T16:48:50.265Z,20.30
2022-09-24T16:51:18.121Z,20.10
2022-09-24T16:53:48.740Z,20.30
2022-09-24T17:00:50.524Z,20.00
2022-09-24T17:03:19.794Z,20.00
2022-09-24T17:05:47.076Z,19.90
2022-09-24T17:08:14.330Z,19.90
2022-09-24T17:10:55.910Z,19.80
2022-09-24T17:13:25.325Z,19.70
2022-09-24T17:15:53.367Z,19.60
2022-09-24T17:33:43.001Z,19.20
2022-09-24T17:36:13.597Z,18.80
2022-09-24T17:38:40.947Z,18.50
2022-09-24T17:41:10.060Z,18.40
2022-09-24T17:43:37.835Z,18.20
2022-09-24T17:46:13.542Z,18.10
2022-09-24T17:53:47.366Z,18.20
2022-09-24T17:56:20.956Z,18.20
2022-09-24T17:58:49.800Z,18.60
2022-09-24T18:01:28.842Z,18.00
2022-09-24T18:04:01.406Z,17.50
2022-09-24T18:06:33.200Z,17.20
2022-09-24T18:09:02.871Z,16.90
2022-09-24T18:16:34.311Z,16.70
2022-09-24T18:19:03.720Z,16.20
2022-09-24T18:21:32.596Z,16.10
2022-09-24T18:24:01.245Z,16.10
2022-09-24T18:26:34.527Z,16.20
2022-09-24T18:29:06.165Z,16.50
2022-09-24T18:31:35.758Z,16.60
2022-09-24T18:39:06.899Z,16.20
2022-09-24T18:41:36.150Z,16.00
2022-09-24T18:44:04.715Z,15.90
2022-09-24T18:46:35.680Z,16.10
2022-09-24T18:49:06.080Z,16.10
2022-09-24T18:51:35.886Z,15.90
2022-09-24T18:54:08.017Z,16.00
2022-09-24T19:01:29.438Z,16.20
2022-09-24T19:04:23.308Z,16.60
2022-09-24T19:07:32.307Z,16.60
2022-09-24T19:10:13.042Z,16.60
2022-09-24T19:12:43.396Z,16.70
2022-09-24T19:15:12.907Z,16.90
2022-09-24T19:23:39.068Z,17.20
2022-09-24T19:26:09.044Z,16.80
2022-09-24T19:28:41.095Z,16.80
2022-09-24T19:31:14.739Z,16.80
2022-09-24T19:33:44.605Z,16.80
2022-09-24T19:36:15.737Z,16.60
2022-09-24T19:38:47.318Z,16.70
2022-09-24T19:46:18.927Z,16.60
2022-09-24T19:48:58.367Z,16.50
2022-09-24T19:51:29.378Z,16.50
2022-09-24T19:54:00.268Z,16.70
2022-09-24T19:56:29.800Z,16.80
2022-09-24T19:58:59.869Z,16.70
2022-09-24T20:06:52.555Z,16.80
2022-09-24T20:09:21.998Z,16.60
2022-09-24T20:11:53.293Z,16.70
2022-09-24T20:14:22.415Z,16.60
2022-09-24T20:16:51.129Z,16.50
2022-09-24T20:19:19.372Z,16.60
2022-09-24T20:21:53.693Z,16.60
2022-09-24T20:29:54.511Z,16.10
2022-09-24T20:32:24.169Z,16.10
2022-09-24T20:34:53.968Z,16.00
2022-09-24T20:37:23.207Z,16.20
2022-09-24T20:39:51.548Z,16.40
2022-09-24T20:42:22.125Z,16.50
2022-09-24T20:44:52.128Z,16.30
2022-09-24T20:52:24.760Z,16.20
2022-09-24T20:54:52.451Z,16.30
2022-09-24T20:57:20.699Z,16.50
2022-09-24T20:59:48.597Z,16.50
2022-09-24T21:02:17.413Z,16.20
2022-09-24T21:04:45.111Z,16.10
2022-09-24T21:07:13.496Z,15.80
2022-09-24T21:14:25.698Z,16.00
2022-09-24T21:16:54.575Z,16.20
2022-09-24T21:19:22.075Z,16.00
2022-09-24T21:21:51.899Z,16.10
2022-09-24T21:24:19.508Z,16.10
2022-09-24T21:26:47.118Z,16.00
2022-09-24T21:29:16.766Z,15.80
2022-09-24T21:36:51.574Z,15.60
2022-09-24T21:39:20.142Z,15.80
2022-09-24T21:41:49.879Z,15.80
2022-09-24T21:44:17.905Z,15.70
2022-09-24T21:46:46.365Z,15.70
2022-09-24T21:49:13.685Z,15.70
2022-09-24T21:51:41.263Z,15.70
2022-09-24T21:56:48.424Z,15.80
2022-09-24T21:59:34.285Z,15.50
2022-09-24T22:02:02.941Z,15.40
2022-09-24T22:04:31.627Z,15.10
2022-09-24T22:06:59.407Z,15.10
2022-09-24T22:09:26.868Z,15.00
2022-09-24T22:11:57.705Z,15.00
2022-09-24T22:18:31.276Z,15.00
2022-09-24T22:20:59.168Z,15.40
2022-09-24T22:23:26.692Z,15.50
2022-09-24T22:25:56.365Z,15.60
2022-09-24T22:28:25.437Z,15.60
2022-09-24T22:30:55.999Z,15.50
2022-09-24T22:33:41.942Z,15.70
2022-09-24T22:40:44.770Z,15.60
2022-09-24T22:43:14.389Z,15.60
2022-09-24T22:45:43.034Z,15.60
2022-09-24T22:48:11.437Z,15.70
2022-09-24T22:50:38.876Z,15.70
2022-09-24T22:53:06.212Z,15.60
2022-09-24T22:55:33.755Z,15.60
2022-09-24T23:03:10.877Z,15.60
2022-09-24T23:05:49.030Z,15.60
2022-09-24T23:08:16.827Z,15.40
2022-09-24T23:10:44.455Z,15.30
2022-09-24T23:13:12.042Z,15.30
2022-09-24T23:15:39.276Z,15.30
2022-09-24T23:18:07.606Z,15.40
2022-09-24T23:25:09.160Z,15.40
2022-09-24T23:27:36.928Z,15.50
2022-09-24T23:30:05.033Z,15.50
2022-09-24T23:32:32.588Z,15.60
2022-09-24T23:35:03.286Z,15.60
2022-09-24T23:37:30.647Z,15.50
2022-09-24T23:39:57.816Z,15.80
2022-09-24T23:45:03.986Z,15.80
2022-09-24T23:47:35.914Z,15.80
2022-09-24T23:50:03.606Z,15.80
2022-09-24T23:52:31.347Z,15.70
2022-09-24T23:54:58.627Z,15.70
2022-09-24T23:57:25.867Z,15.70
2022-09-24T23:59:53.287Z,15.60
